sensor_id;sensor_type;location;lat;lon;timestamp;P1;durP1;ratioP1;P2;durP2;ratioP2
71490;SDS011;59307;50.060;9.150;2022-09-09T00:06:52;5.22;;;1.00;;
71490;SDS011;59307;50.060;9.150;2022-09-09T00:09:26;7.77;;;2.37;;
71490;SDS011;59307;50.060;9.150;2022-09-09T00:12:12;5.28;;;1.90;;
71490;SDS011;59307;50.060;9.150;2022-09-09T00:14:48;8.18;;;1.52;;
71490;SDS011;59307;50.060;9.150;2022-09-09T00:25:41;3.92;;;1.30;;
71490;SDS011;59307;50.060;9.150;2022-09-09T00:28:19;6.20;;;1.10;;
71490;SDS011;59307;50.060;9.150;2022-09-09T00:30:48;3.45;;;1.17;;
71490;SDS011;59307;50.060;9.150;2022-09-09T00:33:14;3.97;;;1.17;;
71490;SDS011;59307;50.060;9.150;2022-09-09T00:35:48;7.75;;;2.00;;
71490;SDS011;59307;50.060;9.150;2022-09-09T00:43:37;3.08;;;1.30;;
71490;SDS011;59307;50.060;9.150;2022-09-09T00:54:01;4.50;;;1.33;;
71490;SDS011;59307;50.060;9.150;2022-09-09T00:56:53;5.28;;;1.00;;
71490;SDS011;59307;50.060;9.150;2022-09-09T00:59:32;3.07;;;1.23;;
71490;SDS011;59307;50.060;9.150;2022-09-09T01:02:20;2.80;;;1.20;;
71490;SDS011;59307;50.060;9.150;2022-09-09T01:05:05;4.85;;;1.27;;
71490;SDS011;59307;50.060;9.150;2022-09-09T01:07:44;2.63;;;1.00;;
71490;SDS011;59307;50.060;9.150;2022-09-09T01:10:26;3.90;;;1.20;;
71490;SDS011;59307;50.060;9.150;2022-09-09T01:13:08;3.43;;;1.00;;
71490;SDS011;59307;50.060;9.150;2022-09-09T01:15:40;3.75;;;1.20;;
71490;SDS011;59307;50.060;9.150;2022-09-09T01:18:08;3.30;;;1.10;;
71490;SDS011;59307;50.060;9.150;2022-09-09T01:28:09;2.60;;;0.90;;
71490;SDS011;59307;50.060;9.150;2022-09-09T01:30:38;3.03;;;1.15;;
71490;SDS011;59307;50.060;9.150;2022-09-09T01:33:07;4.38;;;1.08;;
71490;SDS011;59307;50.060;9.150;2022-09-09T01:38:13;4.83;;;1.17;;
71490;SDS011;59307;50.060;9.150;2022-09-09T01:40:40;3.72;;;1.00;;
71490;SDS011;59307;50.060;9.150;2022-09-09T01:43:05;5.28;;;1.55;;
71490;SDS011;59307;50.060;9.150;2022-09-09T01:45:32;3.27;;;1.30;;
71490;SDS011;59307;50.060;9.150;2022-09-09T01:47:58;4.18;;;1.40;;
71490;SDS011;59307;50.060;9.150;2022-09-09T01:50:25;3.67;;;1.58;;
71490;SDS011;59307;50.060;9.150;2022-09-09T01:52:52;4.63;;;1.30;;
71490;SDS011;59307;50.060;9.150;2022-09-09T01:55:26;3.63;;;0.97;;
71490;SDS011;59307;50.060;9.150;2022-09-09T02:00:56;7.10;;;1.50;;
71490;SDS011;59307;50.060;9.150;2022-09-09T02:03:29;3.05;;;1.25;;
71490;SDS011;59307;50.060;9.150;2022-09-09T02:08:43;3.83;;;1.70;;
71490;SDS011;59307;50.060;9.150;2022-09-09T02:11:13;5.63;;;1.50;;
71490;SDS011;59307;50.060;9.150;2022-09-09T02:13:43;3.28;;;1.60;;
71490;SDS011;59307;50.060;9.150;2022-09-09T02:18:44;3.90;;;1.40;;
71490;SDS011;59307;50.060;9.150;2022-09-09T02:21:18;3.27;;;1.47;;
71490;SDS011;59307;50.060;9.150;2022-09-09T02:23:44;2.47;;;1.10;;
71490;SDS011;59307;50.060;9.150;2022-09-09T02:26:14;3.45;;;1.15;;
71490;SDS011;59307;50.060;9.150;2022-09-09T02:28:45;6.20;;;1.90;;
71490;SDS011;59307;50.060;9.150;2022-09-09T02:31:12;3.80;;;1.10;;
71490;SDS011;59307;50.060;9.150;2022-09-09T02:33:43;3.30;;;1.10;;
71490;SDS011;59307;50.060;9.150;2022-09-09T02:36:12;2.67;;;1.00;;
71490;SDS011;59307;50.060;9.150;2022-09-09T02:38:42;3.28;;;1.10;;
71490;SDS011;59307;50.060;9.150;2022-09-09T02:41:15;3.05;;;1.15;;
71490;SDS011;59307;50.060;9.150;2022-09-09T02:43:41;6.40;;;1.40;;
71490;SDS011;59307;50.060;9.150;2022-09-09T02:56:46;2.40;;;1.27;;
71490;SDS011;59307;50.060;9.150;2022-09-09T02:59:16;4.40;;;1.30;;
71490;SDS011;59307;50.060;9.150;2022-09-09T03:01:42;5.13;;;1.25;;
71490;SDS011;59307;50.060;9.150;2022-09-09T03:04:09;4.00;;;1.20;;
71490;SDS011;59307;50.060;9.150;2022-09-09T03:06:34;4.65;;;1.10;;
71490;SDS011;59307;50.060;9.150;2022-09-09T03:09:00;1.85;;;1.00;;
71490;SDS011;59307;50.060;9.150;2022-09-09T03:11:27;2.67;;;1.20;;
71490;SDS011;59307;50.060;9.150;2022-09-09T03:13:53;3.27;;;1.10;;
71490;SDS011;59307;50.060;9.150;2022-09-09T03:16:21;6.32;;;1.63;;
71490;SDS011;59307;50.060;9.150;2022-09-09T03:18:47;5.68;;;1.40;;
71490;SDS011;59307;50.060;9.150;2022-09-09T03:21:12;2.97;;;1.10;;
71490;SDS011;59307;50.060;9.150;2022-09-09T03:23:37;3.63;;;1.20;;
71490;SDS011;59307;50.060;9.150;2022-09-09T03:26:02;2.90;;;1.07;;
71490;SDS011;59307;50.060;9.150;2022-09-09T03:28:28;3.57;;;1.20;;
71490;SDS011;59307;50.060;9.150;2022-09-09T03:30:59;4.40;;;1.35;;
71490;SDS011;59307;50.060;9.150;2022-09-09T03:33:25;4.93;;;1.48;;
71490;SDS011;59307;50.060;9.150;2022-09-09T03:35:51;5.30;;;1.37;;
71490;SDS011;59307;50.060;9.150;2022-09-09T03:38:16;5.72;;;1.27;;
71490;SDS011;59307;50.060;9.150;2022-09-09T03:40:48;4.00;;;0.97;;
71490;SDS011;59307;50.060;9.150;2022-09-09T03:43:15;4.90;;;1.50;;
71490;SDS011;59307;50.060;9.150;2022-09-09T03:45:44;3.20;;;1.17;;
71490;SDS011;59307;50.060;9.150;2022-09-09T03:48:12;3.97;;;1.23;;
71490;SDS011;59307;50.060;9.150;2022-09-09T03:50:37;3.67;;;1.20;;
71490;SDS011;59307;50.060;9.150;2022-09-09T03:53:02;3.80;;;1.30;;
71490;SDS011;59307;50.060;9.150;2022-09-09T03:55:27;2.10;;;1.10;;
71490;SDS011;59307;50.060;9.150;2022-09-09T03:57:53;2.23;;;1.10;;
71490;SDS011;59307;50.060;9.150;2022-09-09T04:00:18;4.47;;;1.20;;
71490;SDS011;59307;50.060;9.150;2022-09-09T04:02:43;5.27;;;1.10;;
71490;SDS011;59307;50.060;9.150;2022-09-09T04:05:08;2.83;;;1.10;;
71490;SDS011;59307;50.060;9.150;2022-09-09T04:07:34;3.75;;;1.10;;
71490;SDS011;59307;50.060;9.150;2022-09-09T04:10:00;3.20;;;1.33;;
71490;SDS011;59307;50.060;9.150;2022-09-09T04:12:25;6.70;;;1.47;;
71490;SDS011;59307;50.060;9.150;2022-09-09T04:14:51;5.87;;;1.30;;
71490;SDS011;59307;50.060;9.150;2022-09-09T04:17:16;4.25;;;1.40;;
71490;SDS011;59307;50.060;9.150;2022-09-09T04:19:42;3.37;;;1.47;;
71490;SDS011;59307;50.060;9.150;2022-09-09T04:22:07;4.97;;;1.53;;
71490;SDS011;59307;50.060;9.150;2022-09-09T04:24:32;6.60;;;1.80;;
71490;SDS011;59307;50.060;9.150;2022-09-09T04:26:58;3.17;;;1.33;;
71490;SDS011;59307;50.060;9.150;2022-09-09T04:29:23;4.53;;;1.97;;
71490;SDS011;59307;50.060;9.150;2022-09-09T04:31:49;3.53;;;1.47;;
71490;SDS011;59307;50.060;9.150;2022-09-09T04:34:14;3.17;;;1.50;;
71490;SDS011;59307;50.060;9.150;2022-09-09T04:36:39;3.37;;;1.33;;
71490;SDS011;59307;50.060;9.150;2022-09-09T04:39:05;4.70;;;1.43;;
71490;SDS011;59307;50.060;9.150;2022-09-09T04:41:30;5.45;;;1.60;;
71490;SDS011;59307;50.060;9.150;2022-09-09T04:43:56;2.97;;;1.30;;
71490;SDS011;59307;50.060;9.150;2022-09-09T04:46:22;4.43;;;1.60;;
71490;SDS011;59307;50.060;9.150;2022-09-09T04:48:48;5.28;;;1.30;;
71490;SDS011;59307;50.060;9.150;2022-09-09T04:51:14;3.70;;;1.35;;
71490;SDS011;59307;50.060;9.150;2022-09-09T04:53:40;3.43;;;1.40;;
71490;SDS011;59307;50.060;9.150;2022-09-09T04:56:06;4.80;;;1.60;;
71490;SDS011;59307;50.060;9.150;2022-09-09T04:58:37;3.95;;;1.50;;
71490;SDS011;59307;50.060;9.150;2022-09-09T05:01:13;4.10;;;1.92;;
71490;SDS011;59307;50.060;9.150;2022-09-09T05:03:40;7.65;;;1.95;;
71490;SDS011;59307;50.060;9.150;2022-09-09T05:06:13;3.17;;;1.50;;
71490;SDS011;59307;50.060;9.150;2022-09-09T05:08:41;4.43;;;1.67;;
71490;SDS011;59307;50.060;9.150;2022-09-09T05:11:17;6.53;;;2.38;;
71490;SDS011;59307;50.060;9.150;2022-09-09T05:13:50;4.10;;;1.93;;
71490;SDS011;59307;50.060;9.150;2022-09-09T05:16:17;5.22;;;1.70;;
71490;SDS011;59307;50.060;9.150;2022-09-09T05:18:42;4.72;;;1.90;;
71490;SDS011;59307;50.060;9.150;2022-09-09T05:21:09;5.07;;;1.60;;
71490;SDS011;59307;50.060;9.150;2022-09-09T05:23:38;4.00;;;1.70;;
71490;SDS011;59307;50.060;9.150;2022-09-09T05:26:04;4.27;;;1.70;;
71490;SDS011;59307;50.060;9.150;2022-09-09T05:28:30;4.53;;;1.90;;
71490;SDS011;59307;50.060;9.150;2022-09-09T05:30:59;5.07;;;2.13;;
71490;SDS011;59307;50.060;9.150;2022-09-09T05:33:28;7.75;;;2.45;;
71490;SDS011;59307;50.060;9.150;2022-09-09T05:35:57;10.97;;;2.00;;
71490;SDS011;59307;50.060;9.150;2022-09-09T05:38:33;6.80;;;1.63;;
71490;SDS011;59307;50.060;9.150;2022-09-09T05:41:00;5.63;;;1.55;;
71490;SDS011;59307;50.060;9.150;2022-09-09T05:43:27;3.93;;;2.07;;
71490;SDS011;59307;50.060;9.150;2022-09-09T05:46:00;5.93;;;1.40;;
71490;SDS011;59307;50.060;9.150;2022-09-09T05:48:29;4.53;;;1.30;;
71490;SDS011;59307;50.060;9.150;2022-09-09T05:50:59;5.30;;;1.40;;
71490;SDS011;59307;50.060;9.150;2022-09-09T05:53:26;5.07;;;1.80;;
71490;SDS011;59307;50.060;9.150;2022-09-09T05:55:59;3.70;;;1.30;;
71490;SDS011;59307;50.060;9.150;2022-09-09T05:58:39;2.20;;;1.33;;
71490;SDS011;59307;50.060;9.150;2022-09-09T06:01:06;5.57;;;1.80;;
71490;SDS011;59307;50.060;9.150;2022-09-09T06:03:36;2.80;;;1.30;;
71490;SDS011;59307;50.060;9.150;2022-09-09T06:06:04;5.47;;;1.40;;
71490;SDS011;59307;50.060;9.150;2022-09-09T06:08:32;5.07;;;1.60;;
71490;SDS011;59307;50.060;9.150;2022-09-09T06:11:12;6.38;;;1.50;;
71490;SDS011;59307;50.060;9.150;2022-09-09T06:13:40;4.85;;;1.45;;
71490;SDS011;59307;50.060;9.150;2022-09-09T06:16:07;4.57;;;1.40;;
71490;SDS011;59307;50.060;9.150;2022-09-09T06:18:36;8.32;;;1.60;;
71490;SDS011;59307;50.060;9.150;2022-09-09T06:21:02;5.80;;;1.50;;
71490;SDS011;59307;50.060;9.150;2022-09-09T06:23:30;3.40;;;1.40;;
71490;SDS011;59307;50.060;9.150;2022-09-09T06:28:34;4.03;;;1.30;;
71490;SDS011;59307;50.060;9.150;2022-09-09T06:31:02;6.13;;;1.10;;
71490;SDS011;59307;50.060;9.150;2022-09-09T06:33:32;4.32;;;1.45;;
71490;SDS011;59307;50.060;9.150;2022-09-09T06:36:05;3.92;;;1.30;;
71490;SDS011;59307;50.060;9.150;2022-09-09T06:38:31;3.90;;;1.20;;
71490;SDS011;59307;50.060;9.150;2022-09-09T06:40:57;6.55;;;1.30;;
71490;SDS011;59307;50.060;9.150;2022-09-09T06:43:24;4.28;;;1.17;;
71490;SDS011;59307;50.060;9.150;2022-09-09T06:45:54;7.70;;;1.30;;
71490;SDS011;59307;50.060;9.150;2022-09-09T06:48:21;3.17;;;1.20;;
71490;SDS011;59307;50.060;9.150;2022-09-09T06:50:46;5.30;;;1.90;;
71490;SDS011;59307;50.060;9.150;2022-09-09T06:53:12;3.97;;;1.40;;
71490;SDS011;59307;50.060;9.150;2022-09-09T06:55:37;4.93;;;2.13;;
71490;SDS011;59307;50.060;9.150;2022-09-09T06:58:07;4.23;;;1.30;;
71490;SDS011;59307;50.060;9.150;2022-09-09T07:00:33;8.60;;;1.42;;
71490;SDS011;59307;50.060;9.150;2022-09-09T07:02:58;5.43;;;1.20;;
71490;SDS011;59307;50.060;9.150;2022-09-09T07:05:24;5.90;;;1.43;;
71490;SDS011;59307;50.060;9.150;2022-09-09T07:07:50;5.97;;;1.30;;
71490;SDS011;59307;50.060;9.150;2022-09-09T07:10:16;6.28;;;1.48;;
71490;SDS011;59307;50.060;9.150;2022-09-09T07:12:42;9.53;;;1.37;;
71490;SDS011;59307;50.060;9.150;2022-09-09T07:15:08;4.17;;;1.57;;
71490;SDS011;59307;50.060;9.150;2022-09-09T07:17:33;6.30;;;1.20;;
71490;SDS011;59307;50.060;9.150;2022-09-09T07:19:59;6.73;;;1.43;;
71490;SDS011;59307;50.060;9.150;2022-09-09T07:22:24;4.10;;;1.00;;
71490;SDS011;59307;50.060;9.150;2022-09-09T07:24:50;2.97;;;1.23;;
71490;SDS011;59307;50.060;9.150;2022-09-09T07:27:15;6.50;;;1.70;;
71490;SDS011;59307;50.060;9.150;2022-09-09T07:29:40;5.40;;;1.40;;
71490;SDS011;59307;50.060;9.150;2022-09-09T07:32:06;6.37;;;1.40;;
71490;SDS011;59307;50.060;9.150;2022-09-09T07:34:31;5.10;;;1.30;;
71490;SDS011;59307;50.060;9.150;2022-09-09T07:36:56;7.32;;;1.60;;
71490;SDS011;59307;50.060;9.150;2022-09-09T07:39:22;4.37;;;1.40;;
71490;SDS011;59307;50.060;9.150;2022-09-09T07:41:48;2.10;;;1.10;;
71490;SDS011;59307;50.060;9.150;2022-09-09T07:44:15;4.13;;;1.30;;
71490;SDS011;59307;50.060;9.150;2022-09-09T07:46:42;4.20;;;1.25;;
71490;SDS011;59307;50.060;9.150;2022-09-09T07:49:10;7.15;;;1.65;;
71490;SDS011;59307;50.060;9.150;2022-09-09T07:51:38;7.60;;;1.30;;
71490;SDS011;59307;50.060;9.150;2022-09-09T07:54:07;6.65;;;1.48;;
71490;SDS011;59307;50.060;9.150;2022-09-09T07:56:34;6.43;;;1.40;;
71490;SDS011;59307;50.060;9.150;2022-09-09T07:59:00;4.93;;;1.33;;
71490;SDS011;59307;50.060;9.150;2022-09-09T08:01:27;9.23;;;1.63;;
71490;SDS011;59307;50.060;9.150;2022-09-09T08:03:59;7.68;;;1.80;;
71490;SDS011;59307;50.060;9.150;2022-09-09T08:06:26;5.55;;;1.52;;
71490;SDS011;59307;50.060;9.150;2022-09-09T08:08:53;4.88;;;1.38;;
71490;SDS011;59307;50.060;9.150;2022-09-09T08:11:19;5.30;;;1.80;;
71490;SDS011;59307;50.060;9.150;2022-09-09T08:13:48;5.38;;;1.40;;
71490;SDS011;59307;50.060;9.150;2022-09-09T08:16:15;4.68;;;1.50;;
71490;SDS011;59307;50.060;9.150;2022-09-09T08:18:42;7.10;;;1.52;;
71490;SDS011;59307;50.060;9.150;2022-09-09T08:21:10;5.72;;;1.73;;
71490;SDS011;59307;50.060;9.150;2022-09-09T08:23:40;7.40;;;1.70;;
71490;SDS011;59307;50.060;9.150;2022-09-09T08:26:10;8.48;;;1.75;;
71490;SDS011;59307;50.060;9.150;2022-09-09T08:28:38;5.72;;;1.63;;
71490;SDS011;59307;50.060;9.150;2022-09-09T08:31:06;6.95;;;1.77;;
71490;SDS011;59307;50.060;9.150;2022-09-09T08:33:41;10.88;;;2.20;;
71490;SDS011;59307;50.060;9.150;2022-09-09T08:36:09;6.30;;;1.60;;
71490;SDS011;59307;50.060;9.150;2022-09-09T08:38:36;4.63;;;1.60;;
71490;SDS011;59307;50.060;9.150;2022-09-09T08:41:08;5.25;;;1.90;;
71490;SDS011;59307;50.060;9.150;2022-09-09T08:43:43;6.50;;;1.70;;
71490;SDS011;59307;50.060;9.150;2022-09-09T08:46:14;8.20;;;2.10;;
71490;SDS011;59307;50.060;9.150;2022-09-09T08:48:51;4.27;;;1.70;;
71490;SDS011;59307;50.060;9.150;2022-09-09T08:51:24;9.50;;;1.70;;
71490;SDS011;59307;50.060;9.150;2022-09-09T08:53:52;6.43;;;1.55;;
71490;SDS011;59307;50.060;9.150;2022-09-09T08:56:23;6.60;;;1.65;;
71490;SDS011;59307;50.060;9.150;2022-09-09T08:58:53;7.80;;;1.75;;
71490;SDS011;59307;50.060;9.150;2022-09-09T09:07:18;5.75;;;2.38;;
71490;SDS011;59307;50.060;9.150;2022-09-09T09:10:10;7.65;;;1.40;;
71490;SDS011;59307;50.060;9.150;2022-09-09T09:12:50;5.47;;;1.90;;
71490;SDS011;59307;50.060;9.150;2022-09-09T09:15:23;10.23;;;1.70;;
71490;SDS011;59307;50.060;9.150;2022-09-09T09:17:50;6.07;;;1.42;;
71490;SDS011;59307;50.060;9.150;2022-09-09T09:20:16;5.28;;;1.40;;
71490;SDS011;59307;50.060;9.150;2022-09-09T09:22:47;6.03;;;1.23;;
71490;SDS011;59307;50.060;9.150;2022-09-09T09:30:21;6.07;;;1.50;;
71490;SDS011;59307;50.060;9.150;2022-09-09T09:35:35;8.73;;;1.37;;
71490;SDS011;59307;50.060;9.150;2022-09-09T09:38:00;12.27;;;1.70;;
71490;SDS011;59307;50.060;9.150;2022-09-09T09:40:28;6.00;;;1.50;;
71490;SDS011;59307;50.060;9.150;2022-09-09T09:42:56;5.80;;;1.33;;
71490;SDS011;59307;50.060;9.150;2022-09-09T09:45:43;6.53;;;1.30;;
71490;SDS011;59307;50.060;9.150;2022-09-09T09:48:12;5.22;;;1.20;;
71490;SDS011;59307;50.060;9.150;2022-09-09T09:50:51;6.72;;;1.23;;
71490;SDS011;59307;50.060;9.150;2022-09-09T09:53:20;7.93;;;1.53;;
71490;SDS011;59307;50.060;9.150;2022-09-09T09:55:55;5.57;;;1.15;;
71490;SDS011;59307;50.060;9.150;2022-09-09T09:58:23;7.85;;;1.60;;
71490;SDS011;59307;50.060;9.150;2022-09-09T10:00:52;11.27;;;1.67;;
71490;SDS011;59307;50.060;9.150;2022-09-09T10:03:20;6.90;;;1.55;;
71490;SDS011;59307;50.060;9.150;2022-09-09T10:05:48;5.13;;;1.30;;
71490;SDS011;59307;50.060;9.150;2022-09-09T10:08:15;8.73;;;1.90;;
71490;SDS011;59307;50.060;9.150;2022-09-09T10:13:24;9.60;;;1.65;;
71490;SDS011;59307;50.060;9.150;2022-09-09T10:16:43;9.10;;;1.77;;
71490;SDS011;59307;50.060;9.150;2022-09-09T10:21:29;7.65;;;1.55;;
71490;SDS011;59307;50.060;9.150;2022-09-09T10:24:30;8.30;;;1.60;;
71490;SDS011;59307;50.060;9.150;2022-09-09T10:35:35;6.97;;;1.55;;
71490;SDS011;59307;50.060;9.150;2022-09-09T10:38:13;5.80;;;1.50;;
71490;SDS011;59307;50.060;9.150;2022-09-09T10:43:25;9.23;;;1.70;;
71490;SDS011;59307;50.060;9.150;2022-09-09T10:56:54;5.88;;;1.30;;
71490;SDS011;59307;50.060;9.150;2022-09-09T10:59:25;7.18;;;1.40;;
71490;SDS011;59307;50.060;9.150;2022-09-09T11:04:29;6.07;;;1.00;;
71490;SDS011;59307;50.060;9.150;2022-09-09T11:07:00;4.47;;;0.98;;
71490;SDS011;59307;50.060;9.150;2022-09-09T11:09:32;3.80;;;0.90;;
71490;SDS011;59307;50.060;9.150;2022-09-09T11:12:03;5.03;;;1.02;;
71490;SDS011;59307;50.060;9.150;2022-09-09T11:17:21;3.87;;;0.90;;
71490;SDS011;59307;50.060;9.150;2022-09-09T11:19:49;6.68;;;1.10;;
71490;SDS011;59307;50.060;9.150;2022-09-09T11:22:36;3.10;;;1.00;;
71490;SDS011;59307;50.060;9.150;2022-09-09T11:28:11;2.33;;;1.10;;
71490;SDS011;59307;50.060;9.150;2022-09-09T11:33:52;6.03;;;1.10;;
71490;SDS011;59307;50.060;9.150;2022-09-09T11:42:07;4.72;;;1.10;;
71490;SDS011;59307;50.060;9.150;2022-09-09T11:44:33;8.70;;;1.75;;
71490;SDS011;59307;50.060;9.150;2022-09-09T11:46:58;4.37;;;1.20;;
71490;SDS011;59307;50.060;9.150;2022-09-09T11:49:28;4.63;;;1.20;;
71490;SDS011;59307;50.060;9.150;2022-09-09T11:52:18;5.13;;;1.20;;
71490;SDS011;59307;50.060;9.150;2022-09-09T11:54:47;3.28;;;1.02;;
71490;SDS011;59307;50.060;9.150;2022-09-09T11:57:47;2.75;;;0.70;;
71490;SDS011;59307;50.060;9.150;2022-09-09T12:00:06;3.87;;;1.10;;
71490;SDS011;59307;50.060;9.150;2022-09-09T12:02:31;2.05;;;0.63;;
71490;SDS011;59307;50.060;9.150;2022-09-09T12:07:52;1.92;;;0.63;;
71490;SDS011;59307;50.060;9.150;2022-09-09T12:10:27;0.80;;;0.50;;
71490;SDS011;59307;50.060;9.150;2022-09-09T12:13:07;1.83;;;0.68;;
71490;SDS011;59307;50.060;9.150;2022-09-09T12:15:48;2.88;;;0.77;;
71490;SDS011;59307;50.060;9.150;2022-09-09T12:18:25;2.10;;;0.63;;
71490;SDS011;59307;50.060;9.150;2022-09-09T12:20:59;6.35;;;1.45;;
71490;SDS011;59307;50.060;9.150;2022-09-09T12:23:33;7.80;;;1.30;;
71490;SDS011;59307;50.060;9.150;2022-09-09T12:26:22;3.20;;;0.82;;
71490;SDS011;59307;50.060;9.150;2022-09-09T12:34:49;4.70;;;1.00;;
71490;SDS011;59307;50.060;9.150;2022-09-09T12:37:35;5.20;;;1.27;;
71490;SDS011;59307;50.060;9.150;2022-09-09T12:40:03;2.05;;;0.90;;
71490;SDS011;59307;50.060;9.150;2022-09-09T12:42:30;3.70;;;1.10;;
71490;SDS011;59307;50.060;9.150;2022-09-09T12:45:01;3.90;;;1.00;;
71490;SDS011;59307;50.060;9.150;2022-09-09T12:48:02;2.35;;;1.27;;
71490;SDS011;59307;50.060;9.150;2022-09-09T12:50:32;5.28;;;1.05;;
71490;SDS011;59307;50.060;9.150;2022-09-09T12:53:08;2.33;;;0.98;;
71490;SDS011;59307;50.060;9.150;2022-09-09T12:55:48;5.43;;;1.20;;
71490;SDS011;59307;50.060;9.150;2022-09-09T12:58:16;3.73;;;1.10;;
71490;SDS011;59307;50.060;9.150;2022-09-09T13:00:50;6.13;;;1.10;;
71490;SDS011;59307;50.060;9.150;2022-09-09T13:03:17;4.38;;;1.13;;
71490;SDS011;59307;50.060;9.150;2022-09-09T13:05:45;6.22;;;1.20;;
71490;SDS011;59307;50.060;9.150;2022-09-09T13:08:14;5.20;;;1.42;;
71490;SDS011;59307;50.060;9.150;2022-09-09T13:10:46;3.53;;;1.00;;
71490;SDS011;59307;50.060;9.150;2022-09-09T13:13:22;5.43;;;1.13;;
71490;SDS011;59307;50.060;9.150;2022-09-09T13:15:51;4.93;;;0.90;;
71490;SDS011;59307;50.060;9.150;2022-09-09T13:18:20;5.00;;;1.20;;
71490;SDS011;59307;50.060;9.150;2022-09-09T13:20:48;4.80;;;1.15;;
71490;SDS011;59307;50.060;9.150;2022-09-09T13:23:15;4.97;;;1.37;;
71490;SDS011;59307;50.060;9.150;2022-09-09T13:25:52;5.50;;;1.00;;
71490;SDS011;59307;50.060;9.150;2022-09-09T13:28:21;4.38;;;1.50;;
71490;SDS011;59307;50.060;9.150;2022-09-09T13:30:58;6.25;;;1.30;;
71490;SDS011;59307;50.060;9.150;2022-09-09T13:33:34;4.97;;;1.08;;
71490;SDS011;59307;50.060;9.150;2022-09-09T13:36:06;8.03;;;1.37;;
71490;SDS011;59307;50.060;9.150;2022-09-09T13:38:55;4.60;;;1.30;;
71490;SDS011;59307;50.060;9.150;2022-09-09T13:41:35;4.57;;;1.05;;
71490;SDS011;59307;50.060;9.150;2022-09-09T13:44:16;4.93;;;1.17;;
71490;SDS011;59307;50.060;9.150;2022-09-09T13:46:44;3.35;;;1.10;;
71490;SDS011;59307;50.060;9.150;2022-09-09T13:51:36;6.40;;;1.00;;
71490;SDS011;59307;50.060;9.150;2022-09-09T13:54:16;2.87;;;0.80;;
71490;SDS011;59307;50.060;9.150;2022-09-09T13:56:43;6.22;;;1.20;;
71490;SDS011;59307;50.060;9.150;2022-09-09T13:59:10;5.57;;;1.30;;
71490;SDS011;59307;50.060;9.150;2022-09-09T14:01:38;3.45;;;1.10;;
71490;SDS011;59307;50.060;9.150;2022-09-09T14:04:03;4.20;;;1.10;;
71490;SDS011;59307;50.060;9.150;2022-09-09T14:06:31;11.63;;;2.10;;
71490;SDS011;59307;50.060;9.150;2022-09-09T14:08:57;4.20;;;1.13;;
71490;SDS011;59307;50.060;9.150;2022-09-09T14:11:22;3.25;;;0.98;;
71490;SDS011;59307;50.060;9.150;2022-09-09T14:13:48;5.23;;;1.10;;
71490;SDS011;59307;50.060;9.150;2022-09-09T14:16:15;5.55;;;1.20;;
71490;SDS011;59307;50.060;9.150;2022-09-09T14:18:41;4.97;;;1.20;;
71490;SDS011;59307;50.060;9.150;2022-09-09T14:21:06;5.20;;;1.05;;
71490;SDS011;59307;50.060;9.150;2022-09-09T14:23:33;3.53;;;1.00;;
71490;SDS011;59307;50.060;9.150;2022-09-09T14:25:58;5.73;;;1.30;;
71490;SDS011;59307;50.060;9.150;2022-09-09T14:28:24;4.40;;;1.00;;
71490;SDS011;59307;50.060;9.150;2022-09-09T14:30:50;3.58;;;1.00;;
71490;SDS011;59307;50.060;9.150;2022-09-09T14:33:15;4.07;;;1.27;;
71490;SDS011;59307;50.060;9.150;2022-09-09T14:35:41;3.93;;;1.20;;
71490;SDS011;59307;50.060;9.150;2022-09-09T14:38:07;5.18;;;1.05;;
71490;SDS011;59307;50.060;9.150;2022-09-09T14:40:34;3.70;;;1.00;;
71490;SDS011;59307;50.060;9.150;2022-09-09T14:43:01;2.70;;;1.13;;
71490;SDS011;59307;50.060;9.150;2022-09-09T14:45:27;5.93;;;1.10;;
71490;SDS011;59307;50.060;9.150;2022-09-09T14:47:52;4.85;;;1.02;;
71490;SDS011;59307;50.060;9.150;2022-09-09T14:50:18;4.53;;;1.13;;
71490;SDS011;59307;50.060;9.150;2022-09-09T14:52:44;4.30;;;1.30;;
71490;SDS011;59307;50.060;9.150;2022-09-09T14:55:10;7.90;;;1.53;;
71490;SDS011;59307;50.060;9.150;2022-09-09T14:57:36;5.18;;;1.33;;
71490;SDS011;59307;50.060;9.150;2022-09-09T15:00:02;4.53;;;1.00;;
71490;SDS011;59307;50.060;9.150;2022-09-09T15:02:29;5.20;;;1.05;;
71490;SDS011;59307;50.060;9.150;2022-09-09T15:04:54;6.00;;;0.95;;
71490;SDS011;59307;50.060;9.150;2022-09-09T15:07:22;3.53;;;1.35;;
71490;SDS011;59307;50.060;9.150;2022-09-09T15:09:48;2.57;;;0.80;;
71490;SDS011;59307;50.060;9.150;2022-09-09T15:12:14;4.22;;;1.10;;
71490;SDS011;59307;50.060;9.150;2022-09-09T15:14:39;2.60;;;0.90;;
71490;SDS011;59307;50.060;9.150;2022-09-09T15:17:04;3.37;;;0.90;;
71490;SDS011;59307;50.060;9.150;2022-09-09T15:19:30;4.90;;;0.80;;
71490;SDS011;59307;50.060;9.150;2022-09-09T15:21:55;5.30;;;0.83;;
71490;SDS011;59307;50.060;9.150;2022-09-09T15:24:20;2.27;;;0.87;;
71490;SDS011;59307;50.060;9.150;2022-09-09T15:26:46;3.53;;;0.87;;
71490;SDS011;59307;50.060;9.150;2022-09-09T15:29:11;2.30;;;0.70;;
71490;SDS011;59307;50.060;9.150;2022-09-09T15:31:37;1.93;;;0.60;;
71490;SDS011;59307;50.060;9.150;2022-09-09T15:34:06;4.60;;;0.80;;
71490;SDS011;59307;50.060;9.150;2022-09-09T15:39:01;3.72;;;0.60;;
71490;SDS011;59307;50.060;9.150;2022-09-09T15:41:29;2.63;;;0.73;;
71490;SDS011;59307;50.060;9.150;2022-09-09T15:43:55;1.55;;;0.70;;
71490;SDS011;59307;50.060;9.150;2022-09-09T15:46:23;3.78;;;1.00;;
71490;SDS011;59307;50.060;9.150;2022-09-09T15:48:51;2.90;;;0.80;;
71490;SDS011;59307;50.060;9.150;2022-09-09T15:51:19;3.35;;;0.80;;
71490;SDS011;59307;50.060;9.150;2022-09-09T15:53:45;2.47;;;0.80;;
71490;SDS011;59307;50.060;9.150;2022-09-09T15:56:10;5.38;;;0.90;;
71490;SDS011;59307;50.060;9.150;2022-09-09T15:58:36;3.03;;;0.80;;
71490;SDS011;59307;50.060;9.150;2022-09-09T16:01:02;1.87;;;0.80;;
71490;SDS011;59307;50.060;9.150;2022-09-09T16:03:29;2.20;;;0.70;;
71490;SDS011;59307;50.060;9.150;2022-09-09T16:05:58;3.75;;;0.82;;
71490;SDS011;59307;50.060;9.150;2022-09-09T16:08:23;2.50;;;0.80;;
71490;SDS011;59307;50.060;9.150;2022-09-09T16:10:49;2.43;;;0.80;;
71490;SDS011;59307;50.060;9.150;2022-09-09T16:13:14;5.27;;;1.10;;
71490;SDS011;59307;50.060;9.150;2022-09-09T16:15:39;2.75;;;0.90;;
71490;SDS011;59307;50.060;9.150;2022-09-09T16:18:05;2.63;;;1.00;;
71490;SDS011;59307;50.060;9.150;2022-09-09T16:20:30;2.20;;;0.80;;
71490;SDS011;59307;50.060;9.150;2022-09-09T16:22:55;5.87;;;1.00;;
71490;SDS011;59307;50.060;9.150;2022-09-09T16:25:22;4.00;;;1.00;;
71490;SDS011;59307;50.060;9.150;2022-09-09T16:27:47;3.93;;;0.87;;
71490;SDS011;59307;50.060;9.150;2022-09-09T16:30:12;3.83;;;1.03;;
71490;SDS011;59307;50.060;9.150;2022-09-09T16:32:38;3.50;;;0.97;;
71490;SDS011;59307;50.060;9.150;2022-09-09T16:35:03;2.87;;;0.80;;
71490;SDS011;59307;50.060;9.150;2022-09-09T16:37:29;3.38;;;0.90;;
71490;SDS011;59307;50.060;9.150;2022-09-09T16:39:54;3.20;;;0.80;;
71490;SDS011;59307;50.060;9.150;2022-09-09T16:42:20;2.83;;;0.90;;
71490;SDS011;59307;50.060;9.150;2022-09-09T16:44:45;2.83;;;0.70;;
71490;SDS011;59307;50.060;9.150;2022-09-09T16:47:10;6.85;;;1.02;;
71490;SDS011;59307;50.060;9.150;2022-09-09T16:49:36;2.37;;;0.90;;
71490;SDS011;59307;50.060;9.150;2022-09-09T16:52:01;3.23;;;0.80;;
71490;SDS011;59307;50.060;9.150;2022-09-09T16:54:26;3.93;;;0.93;;
71490;SDS011;59307;50.060;9.150;2022-09-09T16:56:52;3.77;;;1.20;;
71490;SDS011;59307;50.060;9.150;2022-09-09T16:59:18;2.25;;;0.90;;
71490;SDS011;59307;50.060;9.150;2022-09-09T17:01:45;1.77;;;0.70;;
71490;SDS011;59307;50.060;9.150;2022-09-09T17:04:13;2.80;;;1.05;;
71490;SDS011;59307;50.060;9.150;2022-09-09T17:06:45;7.35;;;1.00;;
71490;SDS011;59307;50.060;9.150;2022-09-09T17:09:11;1.85;;;0.80;;
71490;SDS011;59307;50.060;9.150;2022-09-09T17:11:38;3.28;;;0.90;;